Moscow, Russia
Current Conditions -  °F | °C
As of 2:30 PM on Friday 24 Oct 2014 (Local Time) from UUWW Reporting Station
Few Clouds Few Clouds  
Wind Chill: 19°   Ceiling: Unl
Heat Index: 28°   Visibility: 6mi
Dew Point: 14°   Wind: 11mph
Humidity: 55%   Direction: 350°N
Pressure: 30.56"   Gusts: NA
Location:  55.75°N, 37.62°E
Report Text: UUWW 241130Z 35005MPS 9999 FEW026 M02/M10 Q1035 01190042 NOSIG
Loading
Personal Weather Stations






























Interactive Weather Map
Tropical Storm Tracking
New forecast layout! Learn more

10-Day Weather Forecast

Advertisements
Track Severe Weather on mobile